createdAt,value
2022-11-14T00:02:44.300Z,12.88
2022-11-14T00:05:48.730Z,12.65
2022-11-14T00:08:53.265Z,14.13
2022-11-14T00:11:57.748Z,13.45
2022-11-14T00:15:02.656Z,12.57
2022-11-14T00:18:08.476Z,13.55
2022-11-14T00:21:12.777Z,12.90
2022-11-14T00:24:17.285Z,13.38
2022-11-14T00:27:22.005Z,12.85
2022-11-14T00:30:27.911Z,13.55
2022-11-14T00:33:34.033Z,13.60
2022-11-14T00:36:39.648Z,13.68
2022-11-14T00:39:44.450Z,14.57
2022-11-14T00:42:48.726Z,14.73
2022-11-14T00:45:53.108Z,15.30
2022-11-14T00:48:58.871Z,16.15
2022-11-14T00:52:03.560Z,17.27
2022-11-14T00:55:09.092Z,18.40
2022-11-14T00:58:13.556Z,18.05
2022-11-14T01:01:18.154Z,19.15
2022-11-14T01:04:23.895Z,18.02
2022-11-14T01:07:28.193Z,18.80
2022-11-14T01:10:32.849Z,19.25
2022-11-14T01:13:37.518Z,19.08
2022-11-14T01:16:42.127Z,19.77
2022-11-14T01:19:47.844Z,19.52
2022-11-14T01:22:52.057Z,19.27
2022-11-14T01:26:02.527Z,19.88
2022-11-14T01:29:07.271Z,18.98
2022-11-14T01:32:11.875Z,20.85
2022-11-14T01:35:18.220Z,20.02
2022-11-14T01:38:22.904Z,20.08
2022-11-14T01:41:27.584Z,18.63
2022-11-14T01:44:44.141Z,16.13
2022-11-14T01:47:49.032Z,14.52
2022-11-14T01:50:58.470Z,15.38
2022-11-14T01:54:05.909Z,14.50
2022-11-14T01:57:12.656Z,16.80
2022-11-14T02:00:17.549Z,18.42
2022-11-14T02:03:22.215Z,17.27
2022-11-14T02:06:30.104Z,18.33
2022-11-14T02:09:38.416Z,18.25
2022-11-14T02:12:42.874Z,19.17
2022-11-14T02:15:47.563Z,17.38
2022-11-14T02:18:51.924Z,19.63
2022-11-14T02:21:57.791Z,18.95
2022-11-14T02:25:03.067Z,19.90
2022-11-14T02:28:10.697Z,19.75
2022-11-14T02:31:15.959Z,21.52
2022-11-14T02:34:20.409Z,18.15
2022-11-14T02:37:26.501Z,16.67
2022-11-14T02:40:30.768Z,16.25
2022-11-14T02:43:35.377Z,17.27
2022-11-14T02:46:39.792Z,16.55
2022-11-14T02:49:44.648Z,16.63
2022-11-14T02:52:50.766Z,17.15
2022-11-14T02:55:55.196Z,15.55
2022-11-14T02:58:59.444Z,15.90
2022-11-14T03:02:04.051Z,17.70
2022-11-14T03:05:08.748Z,21.38
2022-11-14T03:08:14.609Z,23.17
2022-11-14T03:11:19.549Z,21.73
2022-11-14T03:14:24.446Z,21.70
2022-11-14T03:17:32.315Z,20.48
2022-11-14T03:20:36.623Z,19.25
2022-11-14T03:23:42.798Z,19.20
2022-11-14T03:26:47.168Z,17.27
2022-11-14T03:29:51.546Z,17.55
2022-11-14T03:32:56.640Z,18.33
2022-11-14T03:36:01.518Z,20.13
2022-11-14T03:39:07.640Z,23.67
2022-11-14T03:42:12.134Z,22.98
2022-11-14T03:45:16.811Z,24.85
2022-11-14T03:48:21.350Z,21.95
2022-11-14T03:51:25.985Z,21.92
2022-11-14T03:54:31.875Z,22.65
2022-11-14T03:57:36.141Z,20.92
2022-11-14T04:00:41.030Z,21.50
2022-11-14T04:03:45.534Z,21.45
2022-11-14T04:06:50.608Z,20.25
2022-11-14T04:09:56.635Z,23.30
2022-11-14T04:13:01.103Z,24.38
2022-11-14T04:16:06.338Z,23.98
2022-11-14T04:19:10.496Z,25.90
2022-11-14T04:22:14.894Z,26.63
2022-11-14T04:25:20.793Z,26.90
2022-11-14T04:28:25.581Z,25.80
2022-11-14T04:31:29.950Z,25.98
2022-11-14T04:34:34.673Z,25.80
2022-11-14T04:37:39.533Z,26.08
2022-11-14T04:40:50.669Z,25.50
2022-11-14T04:43:55.205Z,25.10
2022-11-14T04:47:00.069Z,25.83
2022-11-14T04:50:05.474Z,26.77
2022-11-14T04:53:09.998Z,25.27
2022-11-14T04:56:16.178Z,24.48
2022-11-14T04:59:21.321Z,24.23
2022-11-14T05:02:25.913Z,25.23
2022-11-14T05:05:30.112Z,25.20
2022-11-14T05:08:35.052Z,25.25
2022-11-14T05:11:41.141Z,25.23
2022-11-14T05:14:45.641Z,25.63
2022-11-14T05:17:50.406Z,24.77
2022-11-14T05:20:58.333Z,24.15
2022-11-14T05:24:02.634Z,24.88
2022-11-14T05:27:08.421Z,25.23
2022-11-14T05:30:13.427Z,23.85
2022-11-14T05:33:17.903Z,24.30
2022-11-14T05:36:22.415Z,35.05
2022-11-14T05:39:26.679Z,26.52
2022-11-14T05:45:37.213Z,34.15
2022-11-14T05:51:47.148Z,25.55
2022-11-14T05:54:51.737Z,25.88
2022-11-14T06:08:29.759Z,34.00
2022-11-14T06:27:03.163Z,25.42
2022-11-14T06:30:09.023Z,23.67
2022-11-14T06:33:13.870Z,23.98
2022-11-14T06:36:20.063Z,23.83
2022-11-14T13:10:43.322Z,21.75
2022-11-14T13:44:05.952Z,31.23
2022-11-14T13:47:35.407Z,27.83
2022-11-14T13:50:40.836Z,26.42
2022-11-14T13:53:47.246Z,27.38
2022-11-14T13:57:03.222Z,26.42
2022-11-14T14:00:18.639Z,24.98
2022-11-14T14:03:38.494Z,25.60
2022-11-14T14:06:53.717Z,25.20
2022-11-14T14:10:06.993Z,26.20
2022-11-14T14:13:23.897Z,25.75
2022-11-14T14:16:36.664Z,24.85
2022-11-14T14:19:53.542Z,24.85
2022-11-14T14:23:06.856Z,23.65
2022-11-14T14:26:23.548Z,25.08
2022-11-14T14:29:38.220Z,25.08
2022-11-14T14:32:43.171Z,24.25
2022-11-14T14:35:53.540Z,23.83
2022-11-14T14:39:16.910Z,26.65
2022-11-14T14:42:23.046Z,23.20
2022-11-14T14:45:29.515Z,25.25
2022-11-14T14:48:39.328Z,24.27
2022-11-14T14:51:44.526Z,23.45
2022-11-14T14:54:55.103Z,25.03
2022-11-14T14:58:21.984Z,25.07
2022-11-14T15:01:33.477Z,25.05
2022-11-14T15:04:40.151Z,22.98
2022-11-14T15:07:46.421Z,24.58
2022-11-14T15:13:59.261Z,29.45
2022-11-14T15:17:04.662Z,24.70
2022-11-14T15:20:22.519Z,23.33
2022-11-14T15:23:26.787Z,23.63
2022-11-14T15:26:31.683Z,23.85
2022-11-14T15:29:45.907Z,23.95
2022-11-14T15:32:51.992Z,22.55
2022-11-14T15:36:08.637Z,23.60
2022-11-14T15:39:26.716Z,24.15
2022-11-14T15:42:31.612Z,24.17
2022-11-14T15:45:41.039Z,24.52
2022-11-14T15:48:45.707Z,42.60
2022-11-14T15:51:53.539Z,36.78
2022-11-14T15:54:58.148Z,28.55
2022-11-14T16:01:28.947Z,33.60
2022-11-14T16:04:35.147Z,48.22
2022-11-14T16:07:40.154Z,35.53
2022-11-14T16:10:44.991Z,29.27
2022-11-14T16:13:49.896Z,26.55
2022-11-14T16:16:55.687Z,65.30
2022-11-14T16:20:00.155Z,58.15
2022-11-14T16:23:05.424Z,197.68
2022-11-14T16:26:09.885Z,169.77
2022-11-14T16:29:15.222Z,127.13
2022-11-14T16:32:21.059Z,121.93
2022-11-14T16:35:26.846Z,71.13
2022-11-14T16:38:31.479Z,56.28
2022-11-14T16:41:36.169Z,44.75
2022-11-14T16:44:49.232Z,34.40
2022-11-14T16:51:20.153Z,28.50
2022-11-14T16:54:30.062Z,30.45
2022-11-14T16:57:36.921Z,25.92
2022-11-14T17:00:43.108Z,30.90
2022-11-14T17:03:48.996Z,35.05
2022-11-14T17:06:53.886Z,28.63
2022-11-14T17:09:58.544Z,32.28
2022-11-14T17:13:03.131Z,30.05
2022-11-14T17:16:08.150Z,30.17
2022-11-14T17:19:14.446Z,31.48
2022-11-14T17:22:20.071Z,124.22
2022-11-14T17:25:25.367Z,93.97
2022-11-14T17:28:30.116Z,41.83
2022-11-14T17:31:37.892Z,33.28
2022-11-14T17:34:45.832Z,28.00
2022-11-14T17:37:50.348Z,26.60
2022-11-14T17:40:57.823Z,33.70
2022-11-14T17:44:03.589Z,54.63
2022-11-14T17:47:08.137Z,33.95
2022-11-14T17:50:14.323Z,27.90
2022-11-14T17:53:20.757Z,25.80
2022-11-14T17:56:26.527Z,26.30
2022-11-14T17:59:31.264Z,24.45
2022-11-14T18:02:35.541Z,26.15
2022-11-14T18:05:42.005Z,27.23
2022-11-14T18:08:47.244Z,21.60
2022-11-14T18:11:52.197Z,22.75
2022-11-14T18:14:57.031Z,22.08
2022-11-14T18:18:02.197Z,21.73
2022-11-14T18:21:09.248Z,20.45
2022-11-14T18:24:14.894Z,20.90
2022-11-14T18:27:20.059Z,23.80
2022-11-14T18:30:40.940Z,20.85
2022-11-14T18:33:45.701Z,23.20
2022-11-14T18:36:51.593Z,25.58
2022-11-14T18:39:56.021Z,19.98
2022-11-14T18:43:00.361Z,21.17
2022-11-14T18:46:06.562Z,21.45
2022-11-14T18:49:11.606Z,22.10
2022-11-14T18:52:19.389Z,22.25
2022-11-14T18:55:23.723Z,21.25
2022-11-14T19:01:35.049Z,22.10
2022-11-14T19:04:40.011Z,22.17
2022-11-14T19:07:46.060Z,23.02
2022-11-14T19:13:55.530Z,21.50
2022-11-14T19:17:00.817Z,21.52
2022-11-14T19:20:11.375Z,20.60
2022-11-14T19:23:20.022Z,21.17
2022-11-14T19:26:24.654Z,20.67
2022-11-14T19:29:29.430Z,19.95
2022-11-14T19:32:35.274Z,20.65
2022-11-14T19:35:39.798Z,21.23
2022-11-14T19:38:45.813Z,20.23
2022-11-14T19:41:50.461Z,21.02
2022-11-14T19:44:55.000Z,19.77
2022-11-14T19:47:59.719Z,18.98
2022-11-14T19:51:06.319Z,18.80
2022-11-14T19:54:12.326Z,19.15
2022-11-14T19:57:16.914Z,20.08
2022-11-14T20:00:21.235Z,18.98
2022-11-14T20:03:25.581Z,19.15
2022-11-14T20:06:31.847Z,19.17
2022-11-14T20:09:38.060Z,19.98
2022-11-14T20:12:42.792Z,19.73
2022-11-14T20:15:47.119Z,20.17
2022-11-14T20:18:58.822Z,20.17
2022-11-14T20:22:06.411Z,19.73
2022-11-14T20:25:15.825Z,20.40
2022-11-14T20:28:20.896Z,18.35
2022-11-14T20:31:27.712Z,19.30
2022-11-14T20:34:32.253Z,19.48
2022-11-14T20:37:36.642Z,19.33
2022-11-14T20:40:42.572Z,18.25
2022-11-14T20:43:47.548Z,19.05
2022-11-14T20:46:52.297Z,18.80
2022-11-14T20:49:56.709Z,18.83
2022-11-14T20:53:01.579Z,18.65
2022-11-14T20:56:08.488Z,18.00
2022-11-14T20:59:12.988Z,17.48
2022-11-14T21:02:17.450Z,15.75
2022-11-14T21:05:22.016Z,17.23
2022-11-14T21:08:27.167Z,17.73
2022-11-14T21:11:33.531Z,19.55
2022-11-14T21:14:38.186Z,17.67
2022-11-14T21:17:43.192Z,17.33
2022-11-14T21:20:47.851Z,17.55
2022-11-14T21:23:53.466Z,16.55
2022-11-14T21:26:59.661Z,17.90
2022-11-14T21:30:05.367Z,17.20
2022-11-14T21:33:10.119Z,16.90
2022-11-14T21:36:43.220Z,17.65
2022-11-14T21:39:40.196Z,18.80
2022-11-14T21:42:46.067Z,17.10
2022-11-14T21:45:55.190Z,17.65
2022-11-14T21:48:59.543Z,17.55
2022-11-14T21:52:04.023Z,17.02
2022-11-14T21:55:08.592Z,17.75
2022-11-14T21:58:14.727Z,16.77
2022-11-14T22:01:41.063Z,17.23
2022-11-14T22:04:46.185Z,15.65
2022-11-14T22:07:50.639Z,17.13
2022-11-14T22:11:01.414Z,17.70
2022-11-14T22:14:07.812Z,18.10
2022-11-14T22:17:12.884Z,17.33
2022-11-14T22:20:17.637Z,18.55
2022-11-14T22:23:22.412Z,17.48
2022-11-14T22:26:26.494Z,17.02
2022-11-14T22:29:32.204Z,17.15
2022-11-14T22:32:37.037Z,15.82
2022-11-14T22:35:41.420Z,17.58
2022-11-14T22:38:47.090Z,17.98
2022-11-14T22:41:51.838Z,17.63
2022-11-14T22:44:57.837Z,17.40
2022-11-14T22:48:02.415Z,17.65
2022-11-14T22:51:08.887Z,17.40
2022-11-14T22:54:14.170Z,18.98
2022-11-14T22:57:18.648Z,19.25
2022-11-14T23:00:26.062Z,18.98
2022-11-14T23:03:30.550Z,19.23
2022-11-14T23:06:35.527Z,20.25
2022-11-14T23:09:40.043Z,19.00
2022-11-14T23:12:44.609Z,20.58
2022-11-14T23:15:50.893Z,20.15
2022-11-14T23:18:56.761Z,20.63
2022-11-14T23:22:01.414Z,21.38
2022-11-14T23:25:06.657Z,20.02
2022-11-14T23:28:11.151Z,22.13
2022-11-14T23:31:19.283Z,21.40
2022-11-14T23:34:23.796Z,21.45
2022-11-14T23:37:28.330Z,22.33
2022-11-14T23:40:33.189Z,23.35
2022-11-14T23:43:37.959Z,23.65
2022-11-14T23:46:43.755Z,23.42
2022-11-14T23:49:48.195Z,23.83
2022-11-14T23:52:52.875Z,24.60
2022-11-14T23:55:58.954Z,25.15
2022-11-14T23:59:03.495Z,25.05
